Time;durP1;ratioP1;P1;durP2;ratioP2;P2;SDS_P1;SDS_P2;PMS_P1;PMS_P2;Temp;Humidity;BMP_temperature;BMP_pressure;BME280_temperature;BME280_humidity;BME280_pressure;Samples;Min_cycle;Max_cycle;Signal;HPM_P1;HPM_P2
2021/07/25 00:01:51;;;;;;;8.65;5.67;;;19.30;99.90;;;;;;1979338;72;21099;-79
2021/07/25 00:04:17;;;;;;;8.60;5.70;;;19.30;99.90;;;;;;1979268;72;21140;-79
2021/07/25 00:06:43;;;;;;;7.78;5.80;;;19.30;99.90;;;;;;1979284;72;21072;-80
2021/07/25 00:09:09;;;;;;;9.95;6.33;;;19.20;99.90;;;;;;1974377;72;21097;-80
2021/07/25 00:11:36;;;;;;;7.85;6.00;;;19.20;99.90;;;;;;1979196;72;21084;-80
2021/07/25 00:14:06;;;;;;;7.87;5.83;;;19.30;99.90;;;;;;1978866;72;21136;-79
2021/07/25 00:16:30;;;;;;;10.20;6.30;;;19.30;99.90;;;;;;1972683;72;21087;-79
2021/07/25 00:18:56;;;;;;;13.22;7.25;;;19.30;99.90;;;;;;1979258;72;21512;-78
2021/07/25 00:21:23;;;;;;;11.18;6.58;;;19.30;99.90;;;;;;1974805;72;21523;-79
2021/07/25 00:23:51;;;;;;;18.65;6.80;;;19.20;99.90;;;;;;1979268;72;21079;-78
2021/07/25 00:26:24;;;;;;;8.53;7.03;;;19.20;99.90;;;;;;1979410;71;21055;-77
2021/07/25 00:28:45;;;;;;;12.70;7.35;;;19.20;99.90;;;;;;1978256;72;21507;-78
2021/07/25 00:31:11;;;;;;;10.15;7.12;;;19.20;99.90;;;;;;1979201;72;21571;-77
2021/07/25 00:33:37;;;;;;;10.53;6.78;;;19.10;99.90;;;;;;1979385;71;21548;-77
2021/07/25 00:36:04;;;;;;;9.60;6.97;;;19.10;99.90;;;;;;1979306;72;21519;-77
2021/07/25 00:38:30;;;;;;;15.32;7.80;;;19.00;99.90;;;;;;1979408;72;21510;-76
2021/07/25 00:40:56;;;;;;;9.48;7.03;;;19.00;99.90;;;;;;1979169;71;21520;-77
2021/07/25 00:43:22;;;;;;;8.73;6.37;;;19.00;99.90;;;;;;1979409;72;21124;-77
2021/07/25 00:45:48;;;;;;;13.50;7.53;;;19.10;99.90;;;;;;1979123;72;21169;-75
2021/07/25 00:48:14;;;;;;;13.85;7.92;;;19.00;99.90;;;;;;1979408;72;21020;-75
2021/07/25 00:50:41;;;;;;;12.88;7.17;;;19.00;99.90;;;;;;1979181;72;21132;-76
2021/07/25 00:53:07;;;;;;;9.80;6.78;;;19.10;99.90;;;;;;1979367;72;21043;-76
2021/07/25 00:55:33;;;;;;;11.73;6.92;;;19.10;99.90;;;;;;1979312;72;21056;-76
2021/07/25 00:58:01;;;;;;;15.88;7.75;;;19.00;99.90;;;;;;1979353;72;21448;-76
2021/07/25 01:00:27;;;;;;;13.98;7.97;;;19.00;99.90;;;;;;1979202;72;21076;-75
2021/07/25 01:02:53;;;;;;;12.30;7.65;;;18.90;99.90;;;;;;1979417;72;21134;-75
2021/07/25 01:05:19;;;;;;;8.68;6.55;;;19.00;99.90;;;;;;1979391;72;21121;-76
2021/07/25 01:07:45;;;;;;;8.15;6.70;;;19.00;99.90;;;;;;1979194;72;21073;-76
2021/07/25 01:10:11;;;;;;;10.48;7.25;;;19.00;99.90;;;;;;1979414;72;21091;-76
2021/07/25 01:12:38;;;;;;;13.62;6.20;;;18.90;99.90;;;;;;1979297;72;21080;-77
2021/07/25 01:15:04;;;;;;;8.88;6.47;;;19.00;99.90;;;;;;1979284;72;21087;-77
2021/07/25 01:17:30;;;;;;;8.85;6.12;;;19.00;99.90;;;;;;1979274;72;21016;-76
2021/07/25 01:19:56;;;;;;;13.98;6.60;;;19.00;99.90;;;;;;1979276;72;21044;-76
2021/07/25 01:22:23;;;;;;;11.08;7.35;;;19.00;99.90;;;;;;1979601;72;21190;-75
2021/07/25 01:24:49;;;;;;;14.65;7.53;;;19.10;99.90;;;;;;1979152;72;21092;-75
2021/07/25 01:27:15;;;;;;;10.95;6.15;;;19.10;99.90;;;;;;1979387;72;21051;-75
2021/07/25 01:29:41;;;;;;;10.50;6.28;;;19.10;99.90;;;;;;1979152;72;21216;-75
2021/07/25 01:32:07;;;;;;;7.60;5.87;;;19.10;99.90;;;;;;1979355;72;21055;-75
2021/07/25 01:34:33;;;;;;;7.75;6.03;;;19.10;99.90;;;;;;1979180;72;21072;-76
2021/07/25 01:36:59;;;;;;;12.58;7.45;;;19.00;99.90;;;;;;1979358;72;21062;-77
2021/07/25 01:39:25;;;;;;;15.15;7.35;;;19.00;99.90;;;;;;1979160;72;21142;-77
2021/07/25 01:41:52;;;;;;;11.65;6.58;;;18.80;99.90;;;;;;1979243;72;21180;-77
2021/07/25 01:44:18;;;;;;;14.63;6.55;;;18.80;99.90;;;;;;1979224;72;21059;-78
2021/07/25 01:46:44;;;;;;;8.65;6.53;;;18.70;99.90;;;;;;1979297;72;21072;-77
2021/07/25 01:49:10;;;;;;;11.05;6.10;;;18.90;99.90;;;;;;1979278;72;21076;-77
2021/07/25 01:51:36;;;;;;;9.63;6.35;;;18.90;99.90;;;;;;1979280;72;21075;-77
2021/07/25 01:54:02;;;;;;;15.00;6.35;;;18.90;99.90;;;;;;1979282;72;21076;-76
2021/07/25 01:56:28;;;;;;;10.55;6.67;;;18.90;99.90;;;;;;1979293;72;21121;-76
2021/07/25 01:58:56;;;;;;;13.20;6.37;;;18.80;99.90;;;;;;1982397;71;21134;-74
2021/07/25 02:01:22;;;;;;;10.30;6.60;;;19.00;99.90;;;;;;1982774;71;21101;-77
2021/07/25 02:03:49;;;;;;;10.05;6.40;;;18.90;99.90;;;;;;1980429;71;21497;-78
2021/07/25 02:06:16;;;;;;;11.95;7.17;;;18.90;99.90;;;;;;1979339;72;21116;-77
2021/07/25 02:08:42;;;;;;;13.05;6.90;;;18.90;99.90;;;;;;1979434;72;21090;-77
2021/07/25 02:11:08;;;;;;;7.95;5.85;;;18.90;99.90;;;;;;1979394;71;21120;-77
2021/07/25 02:13:34;;;;;;;14.80;6.87;;;18.80;99.90;;;;;;1979481;72;21083;-77
2021/07/25 02:16:00;;;;;;;9.50;5.78;;;18.90;99.90;;;;;;1979442;72;21061;-77
2021/07/25 02:18:27;;;;;;;8.85;6.53;;;18.90;99.90;;;;;;1979432;72;21109;-78
2021/07/25 02:20:53;;;;;;;9.65;6.75;;;18.90;99.90;;;;;;1979240;72;21169;-77
2021/07/25 02:23:19;;;;;;;11.25;7.05;;;18.90;99.90;;;;;;1979342;72;21206;-78
2021/07/25 02:25:46;;;;;;;9.75;6.90;;;18.90;99.90;;;;;;1979097;72;21080;-76
2021/07/25 02:28:12;;;;;;;12.43;6.97;;;18.90;99.90;;;;;;1961176;72;21157;-77
2021/07/25 02:30:38;;;;;;;9.35;6.87;;;18.90;99.90;;;;;;1977772;72;21092;-79
2021/07/25 02:33:04;;;;;;;13.58;8.00;;;18.90;99.90;;;;;;1979365;72;21035;-78
2021/07/25 02:35:30;;;;;;;17.40;8.05;;;18.80;99.90;;;;;;1979123;71;21155;-78
2021/07/25 02:37:56;;;;;;;12.85;7.15;;;18.80;99.90;;;;;;1979341;72;21059;-78
2021/07/25 02:40:22;;;;;;;9.18;6.87;;;18.80;99.90;;;;;;1979147;72;21169;-78
2021/07/25 02:42:48;;;;;;;9.93;6.50;;;18.70;99.90;;;;;;1979234;72;21158;-78
2021/07/25 02:45:15;;;;;;;7.42;6.47;;;18.80;99.90;;;;;;1979221;72;21092;-78
2021/07/25 02:47:41;;;;;;;8.70;7.00;;;18.80;99.90;;;;;;1979253;72;21088;-78
2021/07/25 02:50:07;;;;;;;10.95;6.03;;;18.90;99.90;;;;;;1979034;71;21052;-77
2021/07/25 02:52:33;;;;;;;10.60;6.50;;;18.90;99.90;;;;;;1979291;72;21032;-78
2021/07/25 02:54:59;;;;;;;11.05;7.20;;;18.90;99.90;;;;;;1979103;71;21063;-78
2021/07/25 02:57:25;;;;;;;11.83;6.58;;;18.80;99.90;;;;;;1979227;72;21060;-79
2021/07/25 02:59:51;;;;;;;11.57;7.12;;;18.80;99.90;;;;;;1979327;72;21538;-78
2021/07/25 03:02:18;;;;;;;10.55;7.53;;;18.80;99.90;;;;;;1973748;72;21516;-78
2021/07/25 03:04:46;;;;;;;15.72;7.40;;;18.80;99.90;;;;;;1975693;72;21568;-78
2021/07/25 03:07:11;;;;;;;9.78;6.30;;;18.80;99.90;;;;;;1978513;72;21131;-77
2021/07/25 03:09:38;;;;;;;12.07;7.03;;;18.80;99.90;;;;;;1979136;72;21076;-78
2021/07/25 03:12:04;;;;;;;10.38;6.87;;;18.80;99.90;;;;;;1974338;72;21066;-78
2021/07/25 03:14:30;;;;;;;8.00;6.75;;;18.70;99.90;;;;;;1979066;72;21095;-78
2021/07/25 03:16:56;;;;;;;13.53;7.22;;;18.80;99.90;;;;;;1979295;72;21063;-78
2021/07/25 03:19:22;;;;;;;9.93;6.85;;;18.80;99.90;;;;;;1965022;72;21077;-78
2021/07/25 03:21:48;;;;;;;14.05;6.80;;;18.70;99.90;;;;;;1979199;72;21075;-77
2021/07/25 03:24:14;;;;;;;8.28;6.55;;;18.70;99.90;;;;;;1979144;72;21146;-78
2021/07/25 03:26:40;;;;;;;10.43;7.50;;;18.70;99.90;;;;;;1979177;72;21158;-78
2021/07/25 03:29:07;;;;;;;12.60;6.92;;;18.70;99.90;;;;;;1979223;72;21084;-78
2021/07/25 03:31:33;;;;;;;20.20;6.95;;;18.70;99.90;;;;;;1979216;72;21082;-78
2021/07/25 03:34:00;;;;;;;12.75;6.90;;;18.80;99.90;;;;;;1979174;72;21161;-78
2021/07/25 03:36:27;;;;;;;12.93;6.08;;;18.70;99.90;;;;;;1979151;72;21092;-78
2021/07/25 03:38:53;;;;;;;8.08;5.45;;;18.70;99.90;;;;;;1979181;72;21153;-78
2021/07/25 03:41:19;;;;;;;8.73;6.00;;;18.70;99.90;;;;;;1979287;72;21032;-77
2021/07/25 03:43:45;;;;;;;12.78;6.03;;;18.70;99.90;;;;;;1979194;72;21153;-78
2021/07/25 03:46:11;;;;;;;9.40;6.00;;;18.70;99.90;;;;;;1979257;72;21167;-78
2021/07/25 03:48:37;;;;;;;7.67;5.65;;;18.60;99.90;;;;;;1979186;72;21106;-78
2021/07/25 03:51:03;;;;;;;8.40;5.47;;;18.60;99.90;;;;;;1979211;72;21080;-78
2021/07/25 03:53:30;;;;;;;9.55;6.12;;;18.60;99.90;;;;;;1979209;72;21084;-78
2021/07/25 03:55:56;;;;;;;10.98;5.58;;;18.60;99.90;;;;;;1979284;72;21051;-78
2021/07/25 03:58:22;;;;;;;8.68;5.58;;;18.50;99.90;;;;;;1979283;72;21102;-78
2021/07/25 04:00:48;;;;;;;10.00;5.75;;;18.50;99.90;;;;;;1979276;72;21061;-85
2021/07/25 04:03:14;;;;;;;13.95;5.92;;;18.50;99.90;;;;;;1979367;72;21133;-79
2021/07/25 04:05:40;;;;;;;10.20;5.72;;;18.60;99.90;;;;;;1979204;72;21121;-78
2021/07/25 04:08:06;;;;;;;8.43;6.10;;;18.50;99.90;;;;;;1979335;72;21028;-77
2021/07/25 04:10:32;;;;;;;12.07;6.50;;;18.50;99.90;;;;;;1979170;72;21447;-78
2021/07/25 04:12:59;;;;;;;10.88;6.05;;;18.50;99.90;;;;;;1979272;72;21500;-78
2021/07/25 04:15:25;;;;;;;8.63;5.87;;;18.50;99.90;;;;;;1979160;72;21491;-78
2021/07/25 04:17:51;;;;;;;12.15;6.83;;;18.50;99.90;;;;;;1979190;72;21511;-78
2021/07/25 04:20:17;;;;;;;12.63;7.47;;;18.30;99.90;;;;;;1979362;71;21560;-78
2021/07/25 04:22:43;;;;;;;10.68;7.03;;;18.30;99.90;;;;;;1979152;72;21515;-78
2021/07/25 04:25:09;;;;;;;11.12;7.25;;;18.40;99.90;;;;;;1979111;72;21601;-77
2021/07/25 04:27:35;;;;;;;8.25;6.80;;;18.40;99.90;;;;;;1979175;72;21516;-77
2021/07/25 04:30:01;;;;;;;10.32;6.60;;;18.50;99.90;;;;;;1979178;71;21519;-78
2021/07/25 04:32:28;;;;;;;10.60;6.25;;;18.60;99.90;;;;;;1979143;72;21110;-78
2021/07/25 04:34:54;;;;;;;12.47;5.80;;;18.60;99.90;;;;;;1979418;72;21041;-77
2021/07/25 04:37:28;;;;;;;10.55;5.90;;;18.60;99.90;;;;;;1979315;72;21079;-78
2021/07/25 04:39:50;;;;;;;8.25;5.90;;;18.60;99.90;;;;;;1978144;72;21065;-78
2021/07/25 04:42:16;;;;;;;10.50;6.20;;;18.60;99.90;;;;;;1979459;71;21055;-77
2021/07/25 04:44:43;;;;;;;9.60;5.45;;;18.80;99.90;;;;;;1979317;72;21175;-77
2021/07/25 04:47:09;;;;;;;9.55;5.80;;;18.80;99.90;;;;;;1979262;72;21492;-78
2021/07/25 04:49:35;;;;;;;9.78;5.58;;;18.80;99.90;;;;;;1979430;72;21420;-78
2021/07/25 04:52:01;;;;;;;7.72;5.55;;;18.90;99.90;;;;;;1979414;72;21516;-78
2021/07/25 04:54:27;;;;;;;11.75;5.45;;;19.00;99.90;;;;;;1979162;71;21573;-77
2021/07/25 04:57:00;;;;;;;14.75;6.37;;;19.00;99.90;;;;;;1979318;72;21479;-78
2021/07/25 04:59:27;;;;;;;8.65;6.15;;;18.90;99.90;;;;;;1979343;72;21124;-78
2021/07/25 05:01:58;;;;;;;10.55;6.83;;;18.90;99.90;;;;;;1979343;72;21451;-78
2021/07/25 05:04:22;;;;;;;13.90;6.92;;;18.90;99.90;;;;;;1978271;72;21084;-77
2021/07/25 05:06:48;;;;;;;10.08;7.15;;;18.90;99.90;;;;;;1977676;71;21059;-77
2021/07/25 05:09:14;;;;;;;18.12;6.90;;;19.00;99.90;;;;;;1971616;72;21080;-77
2021/07/25 05:11:40;;;;;;;11.85;6.58;;;19.10;99.90;;;;;;1972486;72;21036;-78
2021/07/25 05:14:06;;;;;;;10.32;6.25;;;19.20;99.90;;;;;;1970410;72;21079;-77
2021/07/25 05:16:32;;;;;;;13.15;6.47;;;19.30;99.90;;;;;;1965013;72;21205;-76
2021/07/25 05:18:58;;;;;;;12.68;5.45;;;19.30;99.90;;;;;;1978852;72;21070;-77
2021/07/25 05:21:25;;;;;;;14.60;6.45;;;19.30;99.90;;;;;;1973664;72;21072;-77
2021/07/25 05:23:51;;;;;;;9.25;6.20;;;19.20;99.90;;;;;;1980842;72;21165;-77
2021/07/25 05:26:17;;;;;;;9.55;6.30;;;19.30;99.90;;;;;;1979190;72;21045;-77
2021/07/25 05:28:43;;;;;;;8.30;6.60;;;19.20;99.90;;;;;;1974281;71;21135;-77
2021/07/25 05:31:09;;;;;;;8.83;6.17;;;19.20;99.90;;;;;;1979416;72;21051;-77
2021/07/25 05:33:35;;;;;;;12.73;6.80;;;19.10;99.90;;;;;;1979239;72;21157;-77
2021/07/25 05:36:02;;;;;;;10.10;6.55;;;19.10;99.90;;;;;;1979325;72;21059;-76
2021/07/25 05:38:28;;;;;;;18.02;6.58;;;19.10;99.90;;;;;;1979137;71;21604;-84
2021/07/25 05:40:54;;;;;;;10.15;6.58;;;19.20;99.90;;;;;;1979343;72;21548;-81
2021/07/25 05:43:20;;;;;;;12.80;6.70;;;19.30;99.90;;;;;;1979107;72;21158;-81
2021/07/25 05:45:46;;;;;;;7.00;5.90;;;19.40;99.90;;;;;;1979320;72;21062;-80
2021/07/25 05:48:12;;;;;;;9.40;6.53;;;19.50;99.90;;;;;;1979193;72;21112;-80
2021/07/25 05:50:38;;;;;;;11.90;6.22;;;19.60;99.90;;;;;;1979132;72;21048;-85
2021/07/25 05:53:04;;;;;;;8.05;5.90;;;19.70;99.90;;;;;;1979293;72;21088;-81
2021/07/25 05:55:31;;;;;;;10.32;7.05;;;19.80;99.90;;;;;;1979478;72;21063;-82
2021/07/25 05:57:57;;;;;;;15.40;6.85;;;19.80;99.90;;;;;;1979261;72;21068;-79
2021/07/25 06:00:23;;;;;;;12.03;6.45;;;19.70;99.90;;;;;;1979251;72;21108;-78
2021/07/25 06:02:49;;;;;;;16.00;7.00;;;19.70;99.90;;;;;;1979237;72;21161;-80
2021/07/25 06:05:15;;;;;;;15.25;6.85;;;19.80;99.90;;;;;;1979161;72;21091;-79
2021/07/25 06:07:41;;;;;;;8.50;6.47;;;19.60;99.90;;;;;;1979237;72;21080;-79
2021/07/25 06:10:07;;;;;;;10.23;6.85;;;19.60;99.90;;;;;;1979312;72;21121;-78
2021/07/25 06:12:33;;;;;;;8.58;6.28;;;19.70;99.90;;;;;;1979121;71;21200;-79
2021/07/25 06:14:59;;;;;;;11.45;6.90;;;19.90;99.90;;;;;;1979228;72;21060;-79
2021/07/25 06:17:26;;;;;;;21.35;6.58;;;19.90;99.90;;;;;;1979211;72;21177;-78
2021/07/25 06:19:52;;;;;;;8.80;6.30;;;20.00;99.90;;;;;;1979191;72;21080;-79
2021/07/25 06:22:18;;;;;;;12.55;6.00;;;20.10;99.90;;;;;;1979344;72;21136;-80
2021/07/25 06:24:44;;;;;;;9.10;6.25;;;20.00;99.90;;;;;;1979211;72;21087;-78
2021/07/25 06:27:10;;;;;;;7.92;5.03;;;20.30;99.90;;;;;;1979352;72;21136;-78
2021/07/25 06:29:36;;;;;;;13.20;5.53;;;20.40;99.90;;;;;;1979421;72;21195;-79
2021/07/25 06:32:02;;;;;;;12.98;5.97;;;20.70;99.90;;;;;;1979385;72;21028;-80
2021/07/25 06:34:28;;;;;;;9.25;5.40;;;20.80;99.90;;;;;;1979044;72;21063;-78
2021/07/25 06:36:55;;;;;;;11.57;5.70;;;20.70;99.90;;;;;;1979188;72;21051;-79
2021/07/25 06:39:21;;;;;;;11.05;5.37;;;20.80;99.90;;;;;;1980369;72;21076;-78
2021/07/25 06:41:47;;;;;;;10.40;4.65;;;20.90;99.90;;;;;;1982956;71;21100;-78
2021/07/25 06:44:13;;;;;;;8.78;4.62;;;20.90;99.90;;;;;;1981896;71;21107;-78
2021/07/25 06:46:39;;;;;;;8.08;4.17;;;21.30;99.90;;;;;;1979201;72;21169;-78
2021/07/25 06:49:05;;;;;;;8.23;4.28;;;21.50;99.90;;;;;;1979335;71;21028;-79
2021/07/25 06:51:31;;;;;;;13.25;4.60;;;21.60;99.90;;;;;;1979105;72;21079;-80
2021/07/25 06:53:57;;;;;;;7.78;4.58;;;22.00;99.90;;;;;;1979255;71;21071;-78
2021/07/25 06:56:24;;;;;;;5.75;4.25;;;22.10;99.90;;;;;;1979017;72;21127;-79
2021/07/25 06:58:50;;;;;;;7.33;4.10;;;22.80;99.90;;;;;;1979272;72;21141;-78
2021/07/25 07:01:16;;;;;;;19.10;4.30;;;23.80;99.90;;;;;;1979072;72;21072;-78
2021/07/25 07:03:42;;;;;;;10.40;3.87;;;24.30;99.90;;;;;;1979182;72;21071;-79
2021/07/25 07:06:08;;;;;;;13.18;3.72;;;24.50;99.90;;;;;;1979211;72;21108;-78
2021/07/25 07:08:34;;;;;;;6.92;3.87;;;24.50;99.90;;;;;;1979178;72;21056;-80
2021/07/25 07:11:01;;;;;;;7.95;3.83;;;24.60;99.90;;;;;;1977813;72;21084;-78
2021/07/25 07:13:27;;;;;;;8.05;3.85;;;24.30;99.90;;;;;;1965439;72;21080;-78
2021/07/25 07:15:53;;;;;;;12.28;4.28;;;24.30;99.90;;;;;;1978598;72;21135;-78
2021/07/25 07:18:19;;;;;;;13.83;3.70;;;24.10;99.90;;;;;;1979151;72;21138;-78
2021/07/25 07:20:45;;;;;;;10.00;3.37;;;24.40;99.90;;;;;;1979124;72;21162;-80
2021/07/25 07:23:11;;;;;;;9.78;3.33;;;24.50;99.90;;;;;;1973146;72;21103;-85
2021/07/25 07:25:37;;;;;;;5.22;3.65;;;24.80;99.90;;;;;;1970866;72;21109;-78
2021/07/25 07:28:03;;;;;;;10.00;4.22;;;24.40;99.90;;;;;;1974178;72;21213;-78
2021/07/25 07:30:30;;;;;;;7.53;3.92;;;23.70;99.90;;;;;;1979142;72;21189;-79
2021/07/25 07:32:56;;;;;;;8.90;3.83;;;24.00;99.90;;;;;;1979245;72;21447;-79
2021/07/25 07:35:22;;;;;;;10.28;4.35;;;23.80;99.90;;;;;;1979251;72;21616;-78
2021/07/25 07:37:49;;;;;;;7.53;4.00;;;23.80;99.90;;;;;;1979192;72;21172;-77
2021/07/25 07:40:15;;;;;;;9.58;3.80;;;23.70;99.90;;;;;;1979299;72;21136;-81
2021/07/25 07:42:41;;;;;;;8.60;3.90;;;23.40;99.90;;;;;;1979114;72;21085;-79
2021/07/25 07:45:07;;;;;;;7.25;4.17;;;23.60;99.90;;;;;;1979390;72;21128;-80
2021/07/25 07:47:33;;;;;;;14.65;3.90;;;23.50;99.90;;;;;;1979185;72;21228;-79
2021/07/25 07:50:00;;;;;;;6.40;4.00;;;23.90;99.90;;;;;;1979263;72;21443;-80
2021/07/25 07:52:26;;;;;;;5.80;4.05;;;23.80;99.90;;;;;;1979204;72;21520;-75
2021/07/25 07:54:52;;;;;;;5.33;3.45;;;23.50;99.90;;;;;;1979393;72;21044;-85
2021/07/25 07:57:18;;;;;;;6.37;3.45;;;23.60;99.90;;;;;;1979719;72;21500;-84
2021/07/25 07:59:44;;;;;;;4.30;3.65;;;23.80;99.90;;;;;;1979425;72;21593;-85
2021/07/25 08:02:16;;;;;;;6.62;3.65;;;23.90;99.90;;;;;;1979171;72;21503;-81
2021/07/25 08:04:42;;;;;;;5.05;3.40;;;23.90;99.90;;;;;;1979220;72;21539;-77
2021/07/25 08:07:08;;;;;;;5.72;3.15;;;23.70;99.90;;;;;;1979073;72;21527;-76
2021/07/25 08:09:34;;;;;;;9.53;3.62;;;23.60;99.90;;;;;;1979359;72;21440;-77
2021/07/25 08:12:00;;;;;;;9.08;3.83;;;23.60;99.90;;;;;;1979205;72;21519;-80
2021/07/25 08:14:27;;;;;;;8.43;3.65;;;23.50;99.90;;;;;;1979508;72;21533;-76
2021/07/25 08:16:53;;;;;;;8.98;4.58;;;23.50;99.90;;;;;;1979211;72;21515;-82
2021/07/25 08:19:19;;;;;;;9.48;4.15;;;23.40;99.90;;;;;;1979198;72;21476;-76
2021/07/25 08:21:45;;;;;;;7.65;4.22;;;23.30;99.90;;;;;;1979349;71;21430;-76
2021/07/25 08:24:11;;;;;;;6.40;4.20;;;23.40;99.90;;;;;;1979337;72;21063;-76
2021/07/25 08:26:37;;;;;;;6.33;4.00;;;23.40;99.90;;;;;;1979409;72;21128;-80
2021/07/25 08:29:03;;;;;;;8.70;4.47;;;23.60;99.90;;;;;;1979219;71;21139;-78
2021/07/25 08:31:29;;;;;;;6.60;3.85;;;23.20;99.90;;;;;;1979196;72;21032;-79
2021/07/25 08:33:56;;;;;;;5.45;3.62;;;23.40;99.90;;;;;;1979341;72;21118;-79
2021/07/25 08:36:22;;;;;;;6.72;4.10;;;23.40;99.90;;;;;;1979370;72;21417;-78
2021/07/25 08:38:48;;;;;;;6.42;4.12;;;23.30;99.90;;;;;;1979441;72;21120;-75
2021/07/25 08:41:14;;;;;;;8.78;4.45;;;23.10;99.90;;;;;;1979029;72;21141;-81
2021/07/25 08:43:41;;;;;;;4.40;3.85;;;23.10;99.90;;;;;;1979313;72;21056;-74
2021/07/25 08:46:07;;;;;;;10.03;4.17;;;23.00;99.90;;;;;;1979083;72;21142;-73
2021/07/25 08:48:33;;;;;;;5.10;3.85;;;23.00;99.90;;;;;;1979389;72;21090;-73
2021/07/25 08:50:59;;;;;;;5.22;3.90;;;23.10;99.90;;;;;;1979181;72;21091;-72
2021/07/25 08:53:25;;;;;;;9.75;4.40;;;23.30;99.90;;;;;;1979343;72;21133;-77
2021/07/25 08:55:51;;;;;;;5.10;3.58;;;23.30;99.90;;;;;;1979191;72;21069;-75
2021/07/25 08:58:18;;;;;;;5.85;3.72;;;23.40;99.90;;;;;;1979251;72;21593;-76
2021/07/25 09:00:44;;;;;;;5.47;3.65;;;23.30;99.90;;;;;;1979165;72;21169;-75
2021/07/25 09:03:10;;;;;;;6.10;4.00;;;23.30;99.90;;;;;;1979300;72;21055;-73
2021/07/25 09:05:36;;;;;;;8.20;4.10;;;23.30;99.90;;;;;;1979132;72;21071;-74
2021/07/25 09:08:03;;;;;;;6.50;3.72;;;23.30;99.90;;;;;;1979499;72;21144;-76
2021/07/25 09:10:29;;;;;;;7.87;3.67;;;23.20;99.90;;;;;;1979273;72;20996;-75
2021/07/25 09:12:55;;;;;;;7.12;3.77;;;23.40;99.90;;;;;;1979279;72;21084;-74
2021/07/25 09:15:22;;;;;;;5.87;4.00;;;23.50;99.90;;;;;;1979284;71;21084;-75
2021/07/25 09:17:48;;;;;;;7.60;3.52;;;23.50;99.90;;;;;;1979360;72;21059;-75
2021/07/25 09:20:15;;;;;;;6.70;3.70;;;23.50;99.90;;;;;;1979236;72;21216;-74
2021/07/25 09:22:41;;;;;;;9.38;3.60;;;23.50;99.90;;;;;;1979287;72;21071;-73
2021/07/25 09:25:07;;;;;;;8.20;3.58;;;23.50;99.90;;;;;;1979276;72;21067;-73
2021/07/25 09:27:33;;;;;;;7.85;3.70;;;23.60;99.90;;;;;;1979377;72;21051;-73
2021/07/25 09:30:00;;;;;;;5.95;3.98;;;23.60;99.90;;;;;;1979176;72;21535;-74
2021/07/25 09:32:26;;;;;;;5.47;3.58;;;23.60;99.90;;;;;;1979148;72;21103;-75
2021/07/25 09:34:52;;;;;;;9.93;3.47;;;23.50;99.90;;;;;;1974842;71;21096;-75
2021/07/25 09:37:19;;;;;;;7.47;3.87;;;23.60;99.90;;;;;;1979292;72;21069;-75
2021/07/25 09:39:45;;;;;;;4.62;3.35;;;23.70;99.90;;;;;;1979264;72;21522;-75
2021/07/25 09:42:11;;;;;;;11.12;3.72;;;23.70;99.90;;;;;;1979371;71;21024;-75
2021/07/25 09:44:37;;;;;;;5.62;3.60;;;23.70;99.90;;;;;;1979152;72;21076;-75
2021/07/25 09:47:03;;;;;;;7.40;4.08;;;23.70;99.90;;;;;;1980904;70;21128;-75
2021/07/25 09:49:30;;;;;;;6.22;4.05;;;23.50;99.90;;;;;;1979219;72;21072;-75
2021/07/25 09:51:56;;;;;;;7.03;3.52;;;23.60;99.90;;;;;;1979469;72;21055;-75
2021/07/25 09:54:22;;;;;;;6.22;3.72;;;23.60;99.90;;;;;;1979460;71;21051;-75
2021/07/25 09:56:48;;;;;;;9.25;3.70;;;23.50;99.90;;;;;;1979562;72;21060;-74
2021/07/25 09:59:14;;;;;;;6.03;3.70;;;23.70;99.90;;;;;;1979479;72;21099;-74
2021/07/25 10:01:40;;;;;;;7.00;3.87;;;23.30;99.90;;;;;;1973342;72;21071;-74
2021/07/25 10:04:06;;;;;;;9.08;3.50;;;23.00;99.90;;;;;;1979478;72;21169;-74
2021/07/25 10:06:33;;;;;;;5.92;3.50;;;23.00;99.90;;;;;;1979450;72;21067;-74
2021/07/25 10:08:59;;;;;;;12.03;3.80;;;23.20;99.90;;;;;;1979369;72;21499;-74
2021/07/25 10:11:25;;;;;;;6.35;3.62;;;23.30;99.90;;;;;;1979154;72;21527;-75
2021/07/25 10:13:51;;;;;;;4.12;3.45;;;23.50;99.90;;;;;;1968463;72;21576;-73
2021/07/25 10:16:18;;;;;;;5.17;3.98;;;23.50;99.90;;;;;;1966232;72;21543;-74
2021/07/25 10:18:46;;;;;;;9.45;3.33;;;23.50;99.90;;;;;;1979318;72;21063;-75
2021/07/25 10:21:12;;;;;;;4.72;3.60;;;23.30;99.90;;;;;;1979268;72;21072;-75
2021/07/25 10:23:38;;;;;;;7.87;3.85;;;23.30;99.90;;;;;;1979392;72;21028;-75
2021/07/25 10:26:04;;;;;;;6.75;4.25;;;23.60;99.90;;;;;;1979208;72;21102;-74
2021/07/25 10:28:31;;;;;;;7.08;3.77;;;23.80;99.90;;;;;;1979257;72;21079;-76
2021/07/25 10:30:57;;;;;;;6.53;3.72;;;23.70;99.90;;;;;;1979194;71;21084;-76
2021/07/25 10:33:23;;;;;;;9.03;3.92;;;23.40;99.90;;;;;;1979187;71;21115;-84
2021/07/25 10:35:49;;;;;;;4.83;3.15;;;23.30;99.90;;;;;;1979240;72;21051;-78
2021/07/25 10:38:16;;;;;;;4.35;3.15;;;23.30;99.90;;;;;;1979161;72;21084;-80
2021/07/25 10:40:42;;;;;;;5.83;3.70;;;23.20;99.90;;;;;;1979315;72;21051;-81
2021/07/25 10:43:08;;;;;;;6.90;3.58;;;23.00;99.90;;;;;;1979236;72;21080;-75
2021/07/25 10:45:35;;;;;;;6.25;3.22;;;22.80;99.90;;;;;;1979172;72;21193;-75
2021/07/25 10:48:01;;;;;;;3.45;3.08;;;22.90;99.90;;;;;;1979185;72;21539;-74
2021/07/25 10:50:27;;;;;;;8.35;3.15;;;22.90;99.90;;;;;;1979230;72;21539;-74
2021/07/25 10:52:59;;;;;;;10.50;3.70;;;22.90;99.90;;;;;;1979209;72;21574;-74
2021/07/25 10:55:24;;;;;;;4.42;3.27;;;23.00;99.90;;;;;;1979027;72;21119;-76
2021/07/25 10:57:50;;;;;;;4.85;3.02;;;23.10;99.90;;;;;;1979191;72;21084;-78
2021/07/25 11:00:16;;;;;;;6.47;3.45;;;23.20;99.90;;;;;;1979173;72;21051;-76
2021/07/25 11:02:43;;;;;;;4.28;2.75;;;23.10;99.90;;;;;;1979078;72;21079;-78
2021/07/25 11:05:09;;;;;;;4.35;2.77;;;23.20;99.90;;;;;;1979185;72;21070;-84
2021/07/25 11:07:36;;;;;;;2.47;2.27;;;23.30;99.90;;;;;;1979049;72;21055;-80
2021/07/25 11:10:02;;;;;;;8.95;2.80;;;23.40;99.90;;;;;;1979361;72;21062;-81
2021/07/25 11:12:28;;;;;;;3.92;2.70;;;23.30;99.90;;;;;;1979291;71;21055;-80
2021/07/25 11:14:54;;;;;;;6.55;3.10;;;23.30;99.90;;;;;;1979237;72;21103;-79
2021/07/25 11:17:21;;;;;;;4.97;3.08;;;23.20;99.90;;;;;;1979109;72;21056;-80
2021/07/25 11:19:47;;;;;;;3.67;2.33;;;23.40;99.90;;;;;;1979463;72;21047;-78
2021/07/25 11:22:13;;;;;;;5.83;2.65;;;23.50;99.90;;;;;;1982957;71;21001;-78
2021/07/25 11:24:39;;;;;;;3.33;2.42;;;23.40;99.90;;;;;;1982663;71;21122;-77
2021/07/25 11:27:07;;;;;;;5.80;2.50;;;23.30;99.90;;;;;;1979216;72;21087;-77
2021/07/25 11:29:33;;;;;;;4.45;2.95;;;23.30;99.90;;;;;;1979153;72;21164;-78
2021/07/25 11:31:59;;;;;;;3.20;2.27;;;23.30;99.90;;;;;;1979182;72;21096;-78
2021/07/25 11:34:27;;;;;;;6.40;2.58;;;23.30;99.90;;;;;;1979271;72;21500;-79
2021/07/25 11:36:54;;;;;;;3.83;2.50;;;23.40;99.90;;;;;;1979174;72;21087;-79
2021/07/25 11:39:20;;;;;;;5.20;3.20;;;23.40;99.90;;;;;;1979200;72;21083;-76
2021/07/25 11:41:46;;;;;;;3.85;2.42;;;23.50;99.90;;;;;;1979275;72;21024;-78
2021/07/25 11:44:12;;;;;;;3.17;2.50;;;23.70;99.90;;;;;;1979260;72;21080;-78
2021/07/25 11:46:38;;;;;;;4.78;3.00;;;23.70;99.90;;;;;;1979220;71;21124;-78
2021/07/25 11:49:04;;;;;;;8.38;2.95;;;23.70;99.90;;;;;;1979261;72;21135;-78
2021/07/25 11:51:31;;;;;;;4.72;2.42;;;23.80;99.90;;;;;;1979264;72;21047;-79
2021/07/25 11:53:57;;;;;;;6.03;3.42;;;23.60;99.90;;;;;;1979397;72;21084;-75
2021/07/25 11:56:23;;;;;;;5.78;2.90;;;23.60;99.90;;;;;;1979328;72;21051;-75
2021/07/25 11:58:49;;;;;;;3.77;2.87;;;23.60;99.90;;;;;;1979201;72;21051;-76
2021/07/25 12:01:19;;;;;;;7.92;4.35;;;23.30;99.90;;;;;;1979315;72;21109;-77
2021/07/25 12:03:43;;;;;;;2.92;2.70;;;23.20;99.90;;;;;;1978585;72;21449;-77
2021/07/25 12:06:09;;;;;;;8.60;3.20;;;23.30;99.90;;;;;;1979305;72;21495;-77
2021/07/25 12:08:35;;;;;;;7.33;3.17;;;23.00;99.90;;;;;;1979083;72;21527;-77
2021/07/25 12:11:01;;;;;;;6.72;2.92;;;22.90;99.90;;;;;;1975911;72;21043;-78
2021/07/25 12:13:29;;;;;;;4.67;2.92;;;23.00;99.90;;;;;;1973618;72;21088;-77
2021/07/25 12:15:55;;;;;;;4.15;2.98;;;23.20;99.90;;;;;;1979276;72;21106;-75
2021/07/25 12:18:21;;;;;;;5.33;3.02;;;22.80;99.90;;;;;;1979213;71;21088;-76
2021/07/25 12:20:47;;;;;;;3.90;3.00;;;22.70;99.90;;;;;;1979304;72;21063;-77
2021/07/25 12:23:13;;;;;;;6.65;3.10;;;22.60;99.90;;;;;;1979200;72;21096;-77
2021/07/25 12:25:39;;;;;;;4.97;2.92;;;22.60;99.90;;;;;;1969462;72;21063;-74
2021/07/25 12:28:07;;;;;;;7.97;3.40;;;22.50;99.90;;;;;;1979213;72;21507;-75
2021/07/25 12:30:33;;;;;;;4.42;2.95;;;22.50;99.90;;;;;;1979257;72;21058;-73
2021/07/25 12:32:59;;;;;;;5.35;3.00;;;22.50;99.90;;;;;;1979278;72;21090;-73
2021/07/25 12:35:25;;;;;;;4.75;2.92;;;22.50;99.90;;;;;;1979291;72;21124;-76
2021/07/25 12:37:51;;;;;;;4.30;3.22;;;22.50;99.90;;;;;;1980116;72;21148;-82